Estación Meteorológica Peña el Pijo (Robertgarden) [ 11/19/17 19:00:44 CET ]

Fecha Hora Presion(HPa) Temp (°C) Humedad % Rocio (°C) Viento ( m/s) Direccion Lluvia 1Hora(mm) Lluvia 24H(mm) LLuvia Total(mm)
2017-Jul-04 01:06:06 1014.500 - - -         1427.60
2017-Jul-04 02:01:29 1014.300 11.9 64 5.3         1427.60
2017-Jul-04 03:01:28 1013.800 10.8 67 4.9         1427.60
2017-Jul-04 04:01:40 1013.400 9.8 71 4.8         1427.60
2017-Jul-04 05:01:27 1013.000 9.2 73 4.6         1427.60
2017-Jul-04 06:01:29 1012.800 8.4 74 4.0         1427.60
2017-Jul-04 07:01:33 1012.900 7.6 76 3.6         1427.60
2017-Jul-04 08:01:41 1013.100 10.8 79 7.3         1427.60
2017-Jul-04 09:01:56 1012.900 18.3 59 10.1         1427.60
2017-Jul-04 10:01:47 1012.900 23.4 42 9.7         1427.60
2017-Jul-04 11:01:44 1012.500 27.3 34 10.0         1427.60
2017-Jul-04 12:01:58 1012.200 31.4 24 8.2 0.5 SSW     1427.60
2017-Jul-04 13:01:46 1012.000 32.2 24 8.9         1427.60
2017-Jul-04 14:01:52 1011.800 31.3 24 8.1         1427.60
2017-Jul-04 15:01:49 1011.300 32.1 25 9.4         1427.60
2017-Jul-04 16:01:53 1010.900 32.6 24 9.2         1427.60
2017-Jul-04 17:01:49 1010.500 32.6 24 9.2         1427.60
2017-Jul-04 18:01:50 1010.500 31.7 25 9.0         1427.60
2017-Jul-04 19:01:36 1010.300 29.7 29 9.7         1427.60
2017-Jul-04 20:01:54 1010.500 28.3 33 10.4 1.5 SSW     1427.60
2017-Jul-04 21:01:51 1010.500 25.1 39 10.2         1427.60
2017-Jul-04 22:01:37 1010.900 22.5 45 9.9         1427.60
2017-Jul-04 23:01:53 1011.500 20.9 52 10.7         1427.60

Temperatura Máxima:32°    Temperatura Mínima:
Presión Máxima:1014.500 Hpa    Presión Mínima:1010.300 Hpa


Volver